Time;durP1;ratioP1;P1;durP2;ratioP2;P2;SDS_P1;SDS_P2;PMS_P1;PMS_P2;Temp;Humidity;BMP_temperature;BMP_pressure;BME280_temperature;BME280_humidity;BME280_pressure;Samples;Min_cycle;Max_cycle;Signal;HPM_P1;HPM_P2
2022/11/17 00:02:25;;;;;;;;;5.75;1.25;;;;;13.42;73.83;98311.97;5078103;28;45396;-83
2022/11/17 00:04:50;;;;;;;;;11.50;2.75;;;;;13.44;73.61;98325.75;5077560;27;65048;-83
2022/11/17 00:07:15;;;;;;;;;1.50;1.50;;;;;13.44;73.37;98317.91;5059121;28;63528;-84
2022/11/17 00:09:41;;;;;;;;;5.25;2.00;;;;;13.43;73.42;98324.06;5077512;28;66174;-83
2022/11/17 00:14:50;;;;;;;;;8.75;1.75;;;;;13.47;73.13;98320.28;5078499;28;45609;-83
2022/11/17 00:17:15;;;;;;;;;5.00;0.50;;;;;13.46;73.22;98326.47;5077514;27;52539;-83
2022/11/17 00:22:25;;;;;;;;;4.25;1.25;;;;;13.44;73.25;98333.59;5078014;27;45872;-83
2022/11/17 00:24:50;;;;;;;;;3.50;2.50;;;;;13.44;73.41;98330.97;5060182;28;45423;-84
2022/11/17 00:27:16;;;;;;;;;5.25;1.00;;;;;13.43;72.67;98338.00;5078204;27;45316;-82
2022/11/17 00:29:41;;;;;;;;;6.50;1.25;;;;;13.44;72.83;98325.75;5077891;28;46042;-83
2022/11/17 00:35:00;;;;;;;;;3.25;2.25;;;;;13.48;72.82;98327.16;5062648;28;45431;-83
2022/11/17 00:37:28;;;;;;;;;5.50;2.00;;;;;13.48;72.71;98337.63;5077904;28;45364;-84
2022/11/17 00:39:53;;;;;;;;;6.00;1.00;;;;;13.49;72.54;98331.44;5059243;28;45692;-83
2022/11/17 00:42:18;;;;;;;;;5.00;2.00;;;;;13.50;72.29;98344.41;5077256;27;60490;-83
2022/11/17 00:44:44;;;;;;;;;6.50;2.00;;;;;13.50;72.10;98320.88;5059487;28;45734;-83
2022/11/17 00:47:10;;;;;;;;;5.00;2.50;;;;;13.50;71.87;98343.53;5077721;27;45298;-82
2022/11/17 00:49:35;;;;;;;;;6.50;3.00;;;;;13.50;71.70;98339.19;5059635;28;46612;-83
2022/11/17 00:52:01;;;;;;;;;4.50;2.00;;;;;13.51;71.40;98337.38;5076318;28;45451;-83
2022/11/17 00:54:26;;;;;;;;;4.25;1.00;;;;;13.52;71.61;98326.81;5059116;28;58109;-83
2022/11/17 00:56:51;;;;;;;;;5.00;0.50;;;;;13.52;71.50;98333.81;5077361;28;45316;-83
2022/11/17 00:59:17;;;;;;;;;2.50;1.00;;;;;13.52;71.23;98331.19;5077211;27;47094;-83
2022/11/17 01:01:42;;;;;;;;;0.75;0.75;;;;;13.53;70.85;98351.16;5077383;27;45548;-85
2022/11/17 01:04:11;;;;;;;;;5.00;2.25;;;;;13.53;70.68;98362.44;5059343;28;45359;-83
2022/11/17 01:06:42;;;;;;;;;0.75;0.75;;;;;13.57;70.63;98354.34;5059319;28;45529;-82
2022/11/17 01:09:16;;;;;;;;;3.50;1.00;;;;;13.56;70.00;98382.28;5059241;27;46361;-83
2022/11/17 01:11:42;;;;;;;;;3.50;0.00;;;;;13.57;70.52;98372.66;5077377;28;45371;-83
2022/11/17 01:14:12;;;;;;;;;4.25;1.75;;;;;13.58;70.37;98376.91;5077236;28;45290;-84
2022/11/17 01:16:38;;;;;;;;;3.75;1.00;;;;;13.59;70.15;98358.50;5059133;27;45614;-84
2022/11/17 01:19:05;;;;;;;;;2.50;1.50;;;;;13.60;69.58;98369.81;5058941;28;46415;-83
2022/11/17 01:21:31;;;;;;;;;1.25;0.00;;;;;13.59;69.32;98381.19;5059100;28;45348;-84
2022/11/17 01:23:58;;;;;;;;;7.50;1.00;;;;;13.60;70.12;98375.03;5059186;27;45356;-83
2022/11/17 01:26:27;;;;;;;;;6.50;1.00;;;;;13.61;69.16;98379.28;5077083;28;45325;-83
2022/11/17 01:28:52;;;;;;;;;3.50;0.00;;;;;13.60;68.57;98396.78;5076552;28;46441;-84
2022/11/17 01:31:23;;;;;;;;;0.50;0.00;;;;;13.61;68.42;98400.22;5058960;27;45376;-82
2022/11/17 01:33:49;;;;;;;;;1.75;1.00;;;;;13.62;68.16;98428.03;5075814;27;45341;-83
2022/11/17 01:36:17;;;;;;;;;2.00;1.00;;;;;13.60;68.03;98420.28;5075826;28;45341;-84
2022/11/17 01:38:43;;;;;;;;;2.25;0.00;;;;;13.62;67.94;98420.19;5076637;28;46240;-84
2022/11/17 01:41:18;;;;;;;;;1.50;0.00;;;;;13.63;67.44;98420.06;5075402;27;45795;-84
2022/11/17 01:43:43;;;;;;;;;1.00;0.00;;;;;13.64;67.88;98441.81;5076558;28;45281;-84
2022/11/17 01:46:33;;;;;;;;;0.00;0.00;;;;;13.60;68.81;98432.53;5076831;27;45332;-84
2022/11/17 01:49:14;;;;;;;;;1.00;0.00;;;;;13.52;69.11;98436.59;5050719;28;46429;-84
2022/11/17 01:51:45;;;;;;;;;2.25;1.25;;;;;13.45;69.65;98437.19;5058621;27;45730;-84
2022/11/17 01:54:12;;;;;;;;;0.50;0.50;;;;;13.39;69.43;98440.25;5058713;28;45453;-84
2022/11/17 01:56:41;;;;;;;;;0.50;0.00;;;;;13.33;70.76;98447.63;5058547;28;45407;-83
2022/11/17 01:59:18;;;;;;;;;1.00;0.00;;;;;13.25;70.17;98447.34;5058070;28;46632;-84
2022/11/17 02:01:56;;;;;;;;;1.50;0.00;;;;;13.21;70.48;98434.66;5058442;28;45744;-84
2022/11/17 02:04:28;;;;;;;;;0.00;0.00;;;;;13.17;70.49;98447.09;5059903;27;45375;-84
2022/11/17 02:06:59;;;;;;;;;0.00;0.00;;;;;13.15;70.88;98438.56;5076390;27;45483;-83
2022/11/17 02:09:25;;;;;;;;;0.50;0.50;;;;;13.14;71.50;98453.38;5076531;28;45404;-84
2022/11/17 02:11:50;;;;;;;;;0.00;0.00;;;;;13.14;70.26;98449.94;5057287;28;63183;-83
2022/11/17 02:14:16;;;;;;;;;0.75;0.00;;;;;13.16;70.40;98454.09;5057648;28;58111;-84
2022/11/17 02:16:41;;;;;;;;;1.50;0.00;;;;;13.16;70.81;98450.66;5075102;27;45362;-84
2022/11/17 02:19:08;;;;;;;;;1.25;1.00;;;;;13.14;70.47;98449.94;5057588;28;63133;-83
2022/11/17 02:21:52;;;;;;;;;1.00;0.00;;;;;13.10;70.97;98465.00;5074855;27;49322;-83
2022/11/17 02:24:29;;;;;;;;;2.00;0.75;;;;;13.07;71.07;98465.22;5076449;27;45328;-83
2022/11/17 02:27:25;;;;;;;;;2.00;0.00;;;;;13.03;71.05;98470.81;5075758;28;45467;-83
2022/11/17 02:29:57;;;;;;;;;0.00;0.00;;;;;13.03;71.04;98470.81;5076096;28;45553;-83
2022/11/17 02:32:56;;;;;;;;;2.25;0.00;;;;;13.04;70.86;98475.06;5058101;28;45436;-83
2022/11/17 02:35:32;;;;;;;;;1.00;0.00;;;;;13.04;70.76;98475.94;5074895;28;45384;-84
2022/11/17 02:38:06;;;;;;;;;3.00;0.00;;;;;13.05;70.61;98463.69;5074883;28;45555;-83
2022/11/17 02:41:01;;;;;;;;;3.00;0.00;;;;;13.07;70.45;98478.28;5075424;28;46442;-83
2022/11/17 02:46:19;;;;;;;;;1.00;0.00;;;;;13.09;69.32;98513.00;5060587;28;45416;-83
2022/11/17 02:48:49;;;;;;;;;2.50;0.00;;;;;13.11;69.34;98491.94;5058014;28;45463;-83
2022/11/17 02:51:21;;;;;;;;;3.25;1.00;;;;;13.12;69.68;98485.78;5057750;28;45528;-83
2022/11/17 02:53:48;;;;;;;;;0.50;0.00;;;;;13.09;69.30;98483.41;5057805;28;45507;-83
2022/11/17 02:56:13;;;;;;;;;2.75;0.00;;;;;13.05;70.96;98484.59;5057469;28;45395;-83
2022/11/17 02:58:39;;;;;;;;;1.25;0.00;;;;;12.96;71.12;98513.06;5075101;28;62382;-83
2022/11/17 03:01:09;;;;;;;;;0.00;0.00;;;;;12.87;72.72;98499.84;5056790;28;67968;-83
2022/11/17 03:03:50;;;;;;;;;2.00;0.00;;;;;12.71;73.39;98503.59;5075681;27;45574;-84
2022/11/17 03:06:40;;;;;;;;;2.75;0.00;;;;;12.54;74.35;98525.69;5074471;27;45382;-83
2022/11/17 03:09:17;;;;;;;;;1.75;0.00;;;;;12.40;75.10;98536.28;5074544;28;45371;-84
2022/11/17 03:11:52;;;;;;;;;0.50;0.50;;;;;12.29;76.21;98555.31;5057095;28;45465;-83
2022/11/17 03:14:24;;;;;;;;;1.00;1.00;;;;;12.22;77.03;98581.94;5057655;28;45771;-85
2022/11/17 03:17:01;;;;;;;;;1.00;0.00;;;;;12.15;78.74;98590.19;5060407;28;45439;-83
2022/11/17 03:19:31;;;;;;;;;0.50;0.00;;;;;12.01;80.01;98572.06;5061301;28;45410;-81
2022/11/17 03:22:14;;;;;;;;;0.00;0.00;;;;;11.86;79.05;98573.91;5079040;28;46645;-82
2022/11/17 03:24:43;;;;;;;;;1.00;0.00;;;;;11.74;80.11;98578.22;5060677;28;45420;-82
2022/11/17 03:27:14;;;;;;;;;1.00;0.00;;;;;11.68;80.14;98589.06;5077903;27;45462;-82
2022/11/17 03:29:43;;;;;;;;;0.00;0.00;;;;;11.63;80.36;98605.00;5077953;27;45324;-82
2022/11/17 03:32:10;;;;;;;;;0.00;0.00;;;;;11.58;81.19;98612.28;5077702;27;45405;-82
2022/11/17 03:34:41;;;;;;;;;0.00;0.00;;;;;11.54;81.56;98604.78;5077879;28;45641;-82
2022/11/17 03:37:08;;;;;;;;;0.00;0.00;;;;;11.50;81.72;98619.78;5077695;27;45526;-82
2022/11/17 03:39:36;;;;;;;;;0.00;0.00;;;;;11.46;82.11;98600.09;5060249;28;45273;-83
2022/11/17 03:42:27;;;;;;;;;0.75;0.00;;;;;11.41;82.11;98618.63;5060483;28;47307;-83
2022/11/17 03:44:56;;;;;;;;;0.00;0.00;;;;;11.37;81.90;98618.94;5078087;27;45628;-82
2022/11/17 03:47:24;;;;;;;;;0.50;0.00;;;;;11.37;81.85;98624.97;5043968;28;45334;-83
2022/11/17 03:49:58;;;;;;;;;1.00;0.00;;;;;11.36;81.92;98632.88;5060600;28;45506;-83
2022/11/17 03:52:24;;;;;;;;;0.00;0.00;;;;;11.36;81.95;98636.31;5060560;28;46447;-83
2022/11/17 03:54:50;;;;;;;;;1.00;0.00;;;;;11.38;81.85;98641.41;5060154;28;45413;-83
2022/11/17 03:57:23;;;;;;;;;0.00;0.00;;;;;11.38;81.51;98650.06;5060459;27;45407;-83
2022/11/17 04:00:03;;;;;;;;;0.00;0.00;;;;;11.39;81.75;98648.31;5060330;28;45348;-83
2022/11/17 04:02:28;;;;;;;;;1.00;0.00;;;;;11.40;82.14;98661.25;5077137;27;46231;-83
2022/11/17 04:05:06;;;;;;;;;0.00;0.00;;;;;11.41;81.73;98662.91;5078475;27;45249;-83
2022/11/17 04:07:38;;;;;;;;;1.75;0.00;;;;;11.43;81.55;98668.00;5061573;28;45395;-83
2022/11/17 04:10:05;;;;;;;;;1.00;0.00;;;;;11.44;81.79;98672.31;5060634;28;45403;-83
2022/11/17 04:17:58;;;;;;;;;1.25;0.00;;;;;11.50;81.30;98678.88;5063015;27;45380;-84
2022/11/17 04:20:23;;;;;;;;;1.00;0.00;;;;;11.51;81.14;98683.13;5078314;27;45407;-83
2022/11/17 04:23:06;;;;;;;;;0.75;0.00;;;;;11.52;80.36;98679.59;5077741;28;45467;-83
2022/11/17 04:28:36;;;;;;;;;0.00;0.00;;;;;11.57;80.35;98690.53;5078315;28;45373;-83
2022/11/17 04:31:19;;;;;;;;;1.00;0.00;;;;;11.56;79.84;98700.13;5078142;28;45398;-83
2022/11/17 04:33:50;;;;;;;;;0.75;0.00;;;;;11.58;79.93;98695.66;5077774;27;45525;-83
2022/11/17 04:36:21;;;;;;;;;1.50;0.00;;;;;11.60;79.68;98698.16;5059645;28;45696;-83
2022/11/17 04:38:49;;;;;;;;;0.00;0.00;;;;;11.58;79.08;98703.47;5059257;28;45376;-84
2022/11/17 04:44:00;;;;;;;;;0.00;0.00;;;;;11.57;79.11;98720.06;5062389;28;45335;-83
2022/11/17 04:46:28;;;;;;;;;0.00;0.00;;;;;11.56;79.08;98730.56;5077695;27;45706;-83
2022/11/17 04:48:54;;;;;;;;;0.00;0.00;;;;;11.51;79.65;98722.22;5059866;28;45306;-84
2022/11/17 04:51:20;;;;;;;;;0.00;0.00;;;;;11.46;79.71;98739.91;5077573;27;45405;-83
2022/11/17 04:53:46;;;;;;;;;0.00;0.00;;;;;11.38;80.30;98746.44;5059456;27;46321;-83
2022/11/17 04:56:12;;;;;;;;;1.00;0.00;;;;;11.32;80.34;98753.84;5077447;27;45303;-83
2022/11/17 04:58:37;;;;;;;;;0.00;0.00;;;;;11.26;80.46;98744.63;5059531;27;45464;-83
2022/11/17 05:01:12;;;;;;;;;0.00;0.00;;;;;11.26;80.11;98746.41;5059685;28;45272;-83
2022/11/17 05:03:48;;;;;;;;;1.00;0.00;;;;;11.26;80.43;98751.63;5077441;28;45673;-83
2022/11/17 05:06:16;;;;;;;;;0.00;0.00;;;;;11.25;79.76;98750.78;5058875;27;45660;-83
2022/11/17 05:08:43;;;;;;;;;0.75;0.00;;;;;11.26;79.98;98760.25;5077640;27;45285;-83
2022/11/17 05:13:53;;;;;;;;;0.00;0.00;;;;;11.24;79.12;98764.75;5077375;27;46044;-83
2022/11/17 05:19:04;;;;;;;;;0.00;0.00;;;;;11.17;78.82;98772.09;5077475;27;45351;-83
2022/11/17 05:21:30;;;;;;;;;1.00;0.00;;;;;11.15;78.38;98768.75;5058945;28;45430;-83
2022/11/17 05:23:55;;;;;;;;;0.00;0.00;;;;;11.14;78.47;98774.03;5059145;28;45593;-83
2022/11/17 05:26:25;;;;;;;;;1.00;0.00;;;;;11.13;78.63;98777.59;5077242;27;45320;-84
2022/11/17 05:28:51;;;;;;;;;0.00;0.00;;;;;11.11;77.88;98792.47;5076101;27;45404;-83
2022/11/17 05:31:17;;;;;;;;;1.00;0.00;;;;;11.10;77.93;98791.63;5077307;28;45380;-83
2022/11/17 05:33:42;;;;;;;;;0.00;0.00;;;;;11.09;78.50;98784.75;5058930;28;46381;-83
2022/11/17 05:36:08;;;;;;;;;0.00;0.00;;;;;11.08;78.03;98790.88;5076458;27;45340;-83
2022/11/17 05:38:33;;;;;;;;;0.00;0.00;;;;;11.08;77.96;98790.88;5076100;28;45434;-83
2022/11/17 05:40:59;;;;;;;;;0.00;0.00;;;;;11.08;77.78;98792.66;5075899;28;67029;-84
2022/11/17 05:43:25;;;;;;;;;0.25;0.00;;;;;11.06;77.96;98794.53;5075563;27;47061;-84
2022/11/17 05:45:50;;;;;;;;;0.50;0.00;;;;;11.04;77.83;98808.47;5076806;28;45391;-83
2022/11/17 05:48:16;;;;;;;;;1.00;0.00;;;;;11.04;78.25;98799.81;5076199;27;60443;-84
2022/11/17 05:50:41;;;;;;;;;0.25;0.00;;;;;11.03;78.19;98806.81;5058474;27;45367;-84
2022/11/17 05:53:06;;;;;;;;;0.00;0.00;;;;;11.03;78.34;98809.41;5058589;28;45523;-84
2022/11/17 05:55:32;;;;;;;;;0.00;0.00;;;;;11.03;77.85;98818.97;5076022;27;61459;-83
2022/11/17 05:58:03;;;;;;;;;0.00;0.00;;;;;11.02;78.07;98812.94;5058116;27;55990;-84
2022/11/17 06:00:28;;;;;;;;;0.00;0.00;;;;;11.01;78.37;98816.47;5076754;27;45383;-83
2022/11/17 06:03:04;;;;;;;;;0.00;0.00;;;;;11.02;78.22;98815.53;5058307;28;45562;-84
2022/11/17 06:05:30;;;;;;;;;1.75;0.00;;;;;11.03;78.26;98824.19;5058054;28;45678;-84
2022/11/17 06:07:57;;;;;;;;;0.00;0.00;;;;;11.03;78.67;98830.25;5075672;27;63883;-83
2022/11/17 06:10:23;;;;;;;;;0.00;0.00;;;;;11.03;78.31;98838.06;5076534;28;45359;-83
2022/11/17 06:12:48;;;;;;;;;1.75;0.00;;;;;11.03;78.24;98839.78;5041443;28;48161;-84
2022/11/17 06:15:14;;;;;;;;;0.00;0.00;;;;;11.03;78.70;98839.78;5057278;28;73375;-83
2022/11/17 06:17:53;;;;;;;;;0.00;0.00;;;;;11.03;78.08;98845.00;5075590;27;60627;-83
2022/11/17 06:20:24;;;;;;;;;1.25;0.00;;;;;11.05;78.13;98848.38;5074880;27;45540;-83
2022/11/17 06:22:49;;;;;;;;;0.50;0.00;;;;;11.05;77.71;98840.56;5074896;28;46346;-83
2022/11/17 06:25:16;;;;;;;;;0.00;0.00;;;;;11.08;77.68;98845.56;5074394;27;65402;-83
2022/11/17 06:27:41;;;;;;;;;1.00;0.00;;;;;11.06;77.08;98844.81;5075148;27;45440;-83
2022/11/17 06:30:07;;;;;;;;;1.00;0.00;;;;;11.07;77.13;98835.25;5058134;28;45478;-83
2022/11/17 06:32:34;;;;;;;;;0.00;0.00;;;;;11.07;77.17;98836.09;5057650;28;46388;-83
2022/11/17 06:35:00;;;;;;;;;0.00;0.00;;;;;11.08;76.67;98847.34;5074949;28;45807;-83
2022/11/17 06:37:25;;;;;;;;;0.75;0.00;;;;;11.09;76.63;98851.59;5041171;28;45428;-83
2022/11/17 06:39:51;;;;;;;;;0.00;0.00;;;;;11.08;76.48;98853.38;5075957;27;45282;-83
2022/11/17 06:42:17;;;;;;;;;1.00;0.00;;;;;11.07;76.12;98838.69;5075991;27;45615;-83
2022/11/17 06:44:42;;;;;;;;;0.00;0.00;;;;;11.07;76.21;98854.31;5075640;28;56940;-82
2022/11/17 06:47:07;;;;;;;;;0.00;0.00;;;;;11.05;76.36;98837.97;5074391;27;45373;-83
2022/11/17 06:49:33;;;;;;;;;0.00;0.00;;;;;11.04;76.16;98850.13;5075355;28;60438;-82
2022/11/17 06:51:58;;;;;;;;;1.00;0.00;;;;;11.02;76.04;98840.75;5078453;27;61386;-81
2022/11/17 06:54:23;;;;;;;;;0.00;0.00;;;;;11.02;75.61;98843.34;5078623;27;69432;-81
2022/11/17 06:56:50;;;;;;;;;0.00;0.00;;;;;10.99;75.29;98854.75;5078713;28;67099;-80
2022/11/17 06:59:16;;;;;;;;;1.00;0.00;;;;;10.99;75.25;98859.97;5079540;27;45188;-80
2022/11/17 07:01:42;;;;;;;;;0.00;0.00;;;;;10.96;75.37;98870.59;5078781;27;46176;-80
2022/11/17 07:04:07;;;;;;;;;0.00;0.00;;;;;10.98;75.26;98873.09;5078059;27;45700;-80
2022/11/17 07:06:36;;;;;;;;;0.00;0.00;;;;;10.98;75.04;98860.91;5079294;28;45434;-80
2022/11/17 07:09:02;;;;;;;;;1.00;0.00;;;;;10.97;75.25;98859.22;5079323;27;45454;-80
2022/11/17 07:11:28;;;;;;;;;0.00;0.00;;;;;10.96;75.35;98865.38;5079236;27;45447;-79
2022/11/17 07:13:53;;;;;;;;;0.00;0.00;;;;;10.96;75.32;98868.00;5078392;28;67686;-80
2022/11/17 07:16:19;;;;;;;;;1.00;0.00;;;;;10.98;75.88;98881.75;5078165;27;61691;-80
2022/11/17 07:18:45;;;;;;;;;3.50;0.00;;;;;10.97;75.77;98880.06;5079418;28;45201;-79
2022/11/17 07:21:12;;;;;;;;;0.00;0.00;;;;;11.01;75.79;98884.16;5077782;27;45457;-79
2022/11/17 07:23:40;;;;;;;;;1.00;1.00;;;;;11.04;76.37;98880.53;5060859;27;45694;-79
2022/11/17 07:26:06;;;;;;;;;0.50;0.00;;;;;11.07;76.05;98885.56;5079064;27;45446;-80
2022/11/17 07:28:33;;;;;;;;;3.50;0.00;;;;;11.10;75.71;98887.97;5060900;27;45519;-80
2022/11/17 07:31:03;;;;;;;;;2.00;0.00;;;;;11.15;76.40;98903.31;5078418;27;46018;-80
2022/11/17 07:33:28;;;;;;;;;4.00;0.00;;;;;11.17;76.07;98873.66;5060691;28;45340;-80
2022/11/17 07:35:54;;;;;;;;;0.00;0.00;;;;;11.21;76.11;98882.94;5078684;27;46590;-80
2022/11/17 07:38:20;;;;;;;;;0.00;0.00;;;;;11.28;76.16;98886.03;5078740;27;45445;-80
2022/11/17 07:40:45;;;;;;;;;1.00;0.00;;;;;11.34;75.65;98897.81;5078676;28;45397;-80
2022/11/17 07:43:11;;;;;;;;;0.00;0.00;;;;;11.37;75.40;98895.88;5077834;27;69628;-80
2022/11/17 07:45:36;;;;;;;;;0.75;0.00;;;;;11.41;75.55;98897.34;5077830;28;56977;-80
2022/11/17 07:48:04;;;;;;;;;0.75;0.75;;;;;11.47;75.08;98892.69;5060409;28;45792;-80
2022/11/17 07:50:30;;;;;;;;;2.00;0.00;;;;;11.52;74.90;98917.53;5078562;28;45464;-80
2022/11/17 07:52:56;;;;;;;;;3.75;0.00;;;;;11.57;74.62;98914.63;5043709;28;45439;-80
2022/11/17 07:55:22;;;;;;;;;6.25;0.00;;;;;11.61;75.16;98921.34;5060608;28;45433;-80
2022/11/17 07:57:56;;;;;;;;;1.00;1.00;;;;;11.63;74.34;98920.31;5078535;27;45337;-81
2022/11/17 08:00:21;;;;;;;;;0.50;0.00;;;;;11.67;74.49;98922.75;5077294;28;46429;-80
2022/11/17 08:02:47;;;;;;;;;2.00;0.25;;;;;11.68;74.51;98914.81;5075792;27;70834;-82
2022/11/17 08:05:12;;;;;;;;;0.25;0.00;;;;;11.71;74.27;98917.22;5077366;27;45483;-81
2022/11/17 08:07:37;;;;;;;;;0.75;0.75;;;;;11.73;74.58;98919.75;5078076;27;45303;-81
2022/11/17 08:10:03;;;;;;;;;2.75;1.00;;;;;11.75;74.63;98923.91;5074088;28;56658;-83
2022/11/17 08:12:28;;;;;;;;;0.00;0.00;;;;;11.76;74.78;98925.59;5077588;27;45590;-81
2022/11/17 08:14:54;;;;;;;;;0.00;0.00;;;;;11.78;74.77;98928.94;5076952;27;45488;-82
2022/11/17 08:17:19;;;;;;;;;1.00;0.00;;;;;11.79;74.53;98917.59;5076865;28;62758;-85
2022/11/17 08:19:44;;;;;;;;;0.50;0.50;;;;;11.82;74.61;98929.59;5057542;28;65626;-84
2022/11/17 08:22:10;;;;;;;;;2.25;1.00;;;;;11.86;74.24;98927.63;5075767;28;64541;-82
2022/11/17 08:24:35;;;;;;;;;2.50;0.00;;;;;11.91;74.04;98941.25;5059333;28;48705;-82
2022/11/17 08:27:00;;;;;;;;;0.00;0.00;;;;;11.92;74.27;98930.72;5077370;28;45352;-81
2022/11/17 08:29:25;;;;;;;;;2.00;0.00;;;;;11.95;74.36;98946.16;5077081;27;64152;-83
2022/11/17 08:31:51;;;;;;;;;0.00;0.00;;;;;11.98;75.01;98945.16;5076512;27;69521;-82
2022/11/17 08:34:16;;;;;;;;;0.25;0.00;;;;;11.98;75.99;98942.53;5058429;27;47814;-83
2022/11/17 08:36:41;;;;;;;;;0.00;0.00;;;;;11.99;76.39;98937.19;5072510;28;58777;-82
2022/11/17 08:39:07;;;;;;;;;2.00;0.00;;;;;11.97;76.13;98943.47;5053507;28;55848;-81
2022/11/17 08:41:32;;;;;;;;;0.00;0.00;;;;;11.93;76.02;98942.81;5067747;28;45456;-82
2022/11/17 08:43:58;;;;;;;;;1.00;1.00;;;;;11.93;76.13;98939.38;5071388;27;45368;-83
2022/11/17 08:46:25;;;;;;;;;0.00;0.00;;;;;11.91;75.97;98936.88;5072418;27;45378;-82
2022/11/17 08:48:50;;;;;;;;;0.50;0.00;;;;;11.94;76.31;98941.03;5073019;28;46662;-83
2022/11/17 08:51:16;;;;;;;;;0.00;0.00;;;;;11.99;76.11;98934.59;5075598;28;45462;-83
2022/11/17 08:53:41;;;;;;;;;0.00;0.00;;;;;12.11;76.17;98939.97;5076555;28;62816;-82
2022/11/17 08:56:08;;;;;;;;;0.50;0.50;;;;;12.20;74.71;98945.44;5075930;28;45454;-81
2022/11/17 08:58:41;;;;;;;;;2.75;0.25;;;;;12.27;74.94;98937.22;5075619;27;45413;-82
2022/11/17 09:01:08;;;;;;;;;0.50;0.50;;;;;12.34;74.28;98943.72;5075853;27;45770;-81
2022/11/17 09:03:34;;;;;;;;;0.00;0.00;;;;;12.43;74.31;98947.50;5075932;28;45545;-81
2022/11/17 09:06:01;;;;;;;;;0.75;0.25;;;;;12.51;73.47;98940.84;5076853;27;45450;-81
2022/11/17 09:08:26;;;;;;;;;0.00;0.00;;;;;12.58;73.81;98939.50;5077082;28;46137;-81
2022/11/17 09:10:51;;;;;;;;;0.00;0.00;;;;;12.67;72.86;98939.84;5077116;27;45451;-81
2022/11/17 09:13:17;;;;;;;;;0.00;0.00;;;;;12.76;72.88;98934.84;5075061;28;57473;-81
2022/11/17 09:15:42;;;;;;;;;0.75;0.00;;;;;12.88;72.63;98950.63;5076878;28;45485;-81
2022/11/17 09:18:07;;;;;;;;;5.50;1.00;;;;;12.95;72.27;98944.06;5075475;28;46444;-81
2022/11/17 09:20:33;;;;;;;;;0.00;0.00;;;;;12.93;71.95;98951.97;5071825;27;69304;-81
2022/11/17 09:23:00;;;;;;;;;2.00;0.25;;;;;12.92;71.74;98958.13;5067898;27;48910;-82
2022/11/17 09:25:25;;;;;;;;;0.00;0.00;;;;;12.85;71.59;98951.69;5071816;28;45513;-82
2022/11/17 09:27:51;;;;;;;;;2.00;0.00;;;;;12.81;71.66;98957.19;5072909;28;46669;-82
2022/11/17 09:30:20;;;;;;;;;2.50;0.00;;;;;12.74;72.17;98952.38;5064710;27;45504;-82
2022/11/17 09:32:46;;;;;;;;;1.25;0.00;;;;;12.78;72.11;98961.69;5071688;28;45513;-81
2022/11/17 09:35:13;;;;;;;;;1.00;1.00;;;;;12.86;71.85;98960.34;5076216;27;45505;-81
2022/11/17 09:37:38;;;;;;;;;0.00;0.00;;;;;12.86;72.34;98971.59;5057185;28;46054;-81
2022/11/17 09:40:04;;;;;;;;;2.25;1.00;;;;;12.88;71.59;98972.34;5067473;28;56853;-80
2022/11/17 09:42:30;;;;;;;;;0.50;0.50;;;;;12.88;71.43;98977.56;5070708;28;45490;-81
2022/11/17 09:45:01;;;;;;;;;3.50;1.25;;;;;12.94;71.95;98971.09;5075640;28;48742;-81
2022/11/17 09:47:32;;;;;;;;;3.75;1.00;;;;;13.01;71.83;98972.34;5062648;27;45401;-82
2022/11/17 09:50:05;;;;;;;;;2.25;0.50;;;;;13.07;71.52;98973.72;5072376;27;45678;-81
2022/11/17 09:52:49;;;;;;;;;3.00;1.00;;;;;13.13;71.62;98965.47;5057769;28;45490;-82
2022/11/17 09:55:38;;;;;;;;;1.25;1.00;;;;;13.17;71.39;98982.63;5066038;27;45673;-81
2022/11/17 09:58:14;;;;;;;;;2.00;0.00;;;;;13.28;71.66;99001.03;5065198;28;46240;-81
2022/11/17 10:00:42;;;;;;;;;2.00;0.75;;;;;13.46;70.84;98983.25;5054536;28;45622;-81
2022/11/17 10:03:17;;;;;;;;;0.50;0.50;;;;;13.63;70.36;98987.34;5058025;28;45523;-82
2022/11/17 10:05:42;;;;;;;;;1.50;0.75;;;;;13.82;71.02;98986.03;5058003;28;45448;-82
2022/11/17 10:08:12;;;;;;;;;4.00;0.00;;;;;14.05;70.73;98993.09;5074861;28;66880;-82
2022/11/17 10:10:42;;;;;;;;;0.00;0.00;;;;;14.21;69.68;98987.63;5074054;28;45377;-81
2022/11/17 10:13:20;;;;;;;;;2.00;1.00;;;;;14.41;70.02;98999.28;5059822;28;45645;-81
2022/11/17 10:15:48;;;;;;;;;1.75;0.00;;;;;14.50;70.07;98996.00;5072150;28;45336;-81
2022/11/17 10:18:15;;;;;;;;;3.25;0.00;;;;;14.55;69.35;99003.50;5044129;28;45577;-81
2022/11/17 10:20:41;;;;;;;;;1.00;1.00;;;;;14.59;69.38;98997.09;5075515;28;45795;-81
2022/11/17 10:23:12;;;;;;;;;1.50;0.25;;;;;14.61;68.53;99005.69;5075603;28;45356;-81
2022/11/17 10:25:46;;;;;;;;;4.00;1.00;;;;;14.51;68.16;99007.28;5074913;28;45401;-81
2022/11/17 10:28:29;;;;;;;;;1.00;0.00;;;;;14.40;68.13;98996.75;5057301;28;45390;-81
2022/11/17 10:31:01;;;;;;;;;0.75;0.25;;;;;14.38;69.10;98983.78;5057170;28;45655;-80
2022/11/17 10:33:39;;;;;;;;;1.00;1.00;;;;;14.40;69.41;98983.69;5075854;28;45491;-81
2022/11/17 10:36:13;;;;;;;;;4.00;1.00;;;;;14.46;69.97;98976.19;5074480;27;45465;-81
2022/11/17 10:38:43;;;;;;;;;2.00;0.50;;;;;14.49;68.58;98988.25;5053647;28;45450;-81
2022/11/17 10:41:13;;;;;;;;;3.25;0.00;;;;;14.45;68.29;98986.78;5043709;28;45572;-82
2022/11/17 10:43:41;;;;;;;;;2.25;1.25;;;;;14.47;68.76;98983.13;5054575;28;45404;-82
2022/11/17 10:46:13;;;;;;;;;2.75;1.00;;;;;14.58;67.42;98978.88;5054787;28;45450;-82
2022/11/17 10:48:53;;;;;;;;;0.25;0.00;;;;;14.48;66.19;99003.09;5047322;28;46215;-82
2022/11/17 10:51:24;;;;;;;;;3.25;1.00;;;;;14.34;65.89;98987.56;5055145;28;45645;-81
2022/11/17 10:54:15;;;;;;;;;1.00;0.25;;;;;14.25;66.20;98990.84;5069834;28;45549;-82
2022/11/17 10:56:44;;;;;;;;;3.00;0.00;;;;;14.61;67.06;98968.19;5056921;28;45423;-82
2022/11/17 10:59:19;;;;;;;;;0.00;0.00;;;;;15.37;65.13;98977.31;5070463;28;46322;-82
2022/11/17 11:01:48;;;;;;;;;1.00;0.00;;;;;15.99;62.71;98972.53;5070491;28;45403;-83
2022/11/17 11:04:35;;;;;;;;;0.00;0.00;;;;;15.78;62.35;98975.09;5064476;28;45391;-82
2022/11/17 11:07:20;;;;;;;;;0.25;0.00;;;;;16.03;62.58;98963.50;5038849;28;45382;-82
2022/11/17 11:10:03;;;;;;;;;4.00;0.00;;;;;17.18;60.89;98961.94;5049832;28;45455;-83
2022/11/17 11:12:35;;;;;;;;;0.75;0.00;;;;;18.06;58.27;98967.56;5066537;28;45468;-81
2022/11/17 11:15:02;;;;;;;;;0.00;0.00;;;;;18.12;57.12;98964.38;5065731;28;45583;-82
2022/11/17 11:17:28;;;;;;;;;0.25;0.00;;;;;18.36;55.81;98964.00;5053718;28;45935;-82
2022/11/17 11:19:54;;;;;;;;;0.00;0.00;;;;;19.28;53.94;98959.22;5069936;28;46224;-82
2022/11/17 11:22:32;;;;;;;;;2.00;0.00;;;;;20.26;52.31;98956.94;5039485;28;45590;-82
2022/11/17 11:25:31;;;;;;;;;0.00;0.00;;;;;19.89;50.63;98965.78;5033242;28;45285;-82
2022/11/17 11:28:28;;;;;;;;;0.00;0.00;;;;;19.09;51.21;98962.72;5034598;28;45363;-83
2022/11/17 11:31:01;;;;;;;;;1.25;1.00;;;;;18.30;52.10;98961.91;5049119;28;45455;-82
2022/11/17 11:33:35;;;;;;;;;0.50;0.25;;;;;18.08;54.18;98967.44;5054719;28;45638;-82
2022/11/17 11:36:18;;;;;;;;;1.00;0.50;;;;;18.15;53.61;98961.47;5070298;27;45595;-82
2022/11/17 11:39:12;;;;;;;;;1.25;0.00;;;;;18.31;53.56;98970.63;5056950;28;45431;-82
2022/11/17 11:41:43;;;;;;;;;0.25;0.00;;;;;18.52;52.85;98960.81;5055342;28;45541;-82
2022/11/17 11:44:24;;;;;;;;;2.00;0.75;;;;;18.93;53.06;98964.16;5059963;28;45382;-82
2022/11/17 11:47:18;;;;;;;;;0.00;0.00;;;;;19.29;51.61;98964.34;5078536;28;45427;-82
2022/11/17 11:49:48;;;;;;;;;4.00;0.50;;;;;18.80;51.27;98962.75;5059903;28;45541;-82
2022/11/17 11:52:19;;;;;;;;;1.50;0.00;;;;;18.11;51.15;98981.16;5077598;27;47773;-82
2022/11/17 11:54:51;;;;;;;;;0.75;0.00;;;;;17.47;51.73;98974.38;5070918;27;45784;-83
2022/11/17 11:57:20;;;;;;;;;0.00;0.00;;;;;16.93;52.28;98980.72;5062305;28;45405;-83
2022/11/17 11:59:57;;;;;;;;;0.00;0.00;;;;;16.32;53.69;98984.75;5068544;28;45275;-89
2022/11/17 12:02:42;;;;;;;;;1.25;1.00;;;;;15.87;54.72;98963.88;5058952;28;46465;-85
2022/11/17 12:05:42;;;;;;;;;0.00;0.00;;;;;15.53;55.52;98976.16;5040958;28;45388;-86
2022/11/17 12:08:22;;;;;;;;;0.00;0.00;;;;;15.24;56.77;98979.19;5078762;27;45327;-84
2022/11/17 12:10:59;;;;;;;;;0.50;0.00;;;;;15.02;57.20;98975.56;5072135;27;45531;-83
2022/11/17 12:13:26;;;;;;;;;0.00;0.00;;;;;14.84;57.92;98972.56;5064838;27;46071;-86
2022/11/17 12:16:17;;;;;;;;;1.00;0.00;;;;;14.73;58.05;98979.53;5022663;28;45641;-84